Time;durP1;ratioP1;P1;durP2;ratioP2;P2;SDS_P1;SDS_P2;PMS_P1;PMS_P2;Temp;Humidity;BMP_temperature;BMP_pressure;BME280_temperature;BME280_humidity;BME280_pressure;Samples;Min_cycle;Max_cycle;Signal;HPM_P1;HPM_P2
2023/01/20 00:02:19;;;;;;;76.80;25.73;;;;;;;;;;6283409;28;20056;-63
2023/01/20 00:05:20;;;;;;;79.35;28.48;;;;;;;;;;6283244;28;20121;-55
2023/01/20 00:08:21;;;;;;;83.97;30.58;;;;;;;;;;6283492;28;20094;-61
2023/01/20 00:11:21;;;;;;;85.15;30.38;;;;;;;;;;6282774;28;20040;-55
2023/01/20 00:14:24;;;;;;;79.72;29.92;;;;;;;;;;6283903;28;20453;-59
2023/01/20 00:17:26;;;;;;;89.53;31.50;;;;;;;;;;6278784;28;20397;-57
2023/01/20 00:20:27;;;;;;;80.35;31.55;;;;;;;;;;6289708;28;20045;-54
2023/01/20 00:23:27;;;;;;;91.03;31.38;;;;;;;;;;6279881;28;20067;-56
2023/01/20 00:26:28;;;;;;;97.55;31.30;;;;;;;;;;6280298;28;20102;-55
2023/01/20 00:29:28;;;;;;;91.35;32.85;;;;;;;;;;6290606;28;20132;-54
2023/01/20 00:32:29;;;;;;;87.88;31.00;;;;;;;;;;6291761;28;20048;-60
2023/01/20 00:35:30;;;;;;;89.30;28.67;;;;;;;;;;6284567;28;20048;-57
2023/01/20 00:38:30;;;;;;;88.72;30.75;;;;;;;;;;6283205;28;20049;-56
2023/01/20 00:41:31;;;;;;;87.03;31.17;;;;;;;;;;6288842;28;20209;-55
2023/01/20 00:44:31;;;;;;;88.13;29.23;;;;;;;;;;6283140;28;20048;-55
2023/01/20 00:47:32;;;;;;;91.82;30.63;;;;;;;;;;6276086;28;20175;-63
2023/01/20 00:50:33;;;;;;;94.93;32.40;;;;;;;;;;6282129;28;20048;-63
2023/01/20 00:53:34;;;;;;;99.78;33.40;;;;;;;;;;6289259;28;20080;-59
2023/01/20 00:56:34;;;;;;;92.80;30.00;;;;;;;;;;6286394;28;20052;-60
2023/01/20 00:59:35;;;;;;;78.00;28.10;;;;;;;;;;6291273;28;20072;-62
2023/01/20 01:02:39;;;;;;;93.45;31.02;;;;;;;;;;6278963;28;20406;-63
2023/01/20 01:05:39;;;;;;;91.78;31.33;;;;;;;;;;6274285;28;20122;-57
2023/01/20 01:08:42;;;;;;;107.43;34.75;;;;;;;;;;6284883;28;20098;-58
2023/01/20 01:11:42;;;;;;;100.72;36.05;;;;;;;;;;6288231;28;20415;-55
2023/01/20 01:14:43;;;;;;;107.32;37.53;;;;;;;;;;6291013;28;20079;-54
2023/01/20 01:17:44;;;;;;;119.45;42.95;;;;;;;;;;6287971;28;20086;-57
2023/01/20 01:20:44;;;;;;;116.57;39.95;;;;;;;;;;6290879;28;20049;-63
2023/01/20 01:23:46;;;;;;;126.07;40.55;;;;;;;;;;6283172;28;20065;-61
2023/01/20 01:26:46;;;;;;;112.30;36.25;;;;;;;;;;6290487;28;20094;-54
2023/01/20 01:29:47;;;;;;;102.93;35.05;;;;;;;;;;6290602;28;20131;-63
2023/01/20 01:32:48;;;;;;;104.82;32.90;;;;;;;;;;6291083;28;20045;-55
2023/01/20 01:36:00;;;;;;;109.95;33.35;;;;;;;;;;6291142;28;20044;-62
2023/01/20 01:39:00;;;;;;;103.57;32.60;;;;;;;;;;6280272;28;20139;-58
2023/01/20 01:42:01;;;;;;;102.75;32.65;;;;;;;;;;6283725;28;20063;-58
2023/01/20 01:45:10;;;;;;;100.50;31.35;;;;;;;;;;6275269;28;20041;-56
2023/01/20 01:48:11;;;;;;;92.80;33.33;;;;;;;;;;6263260;28;20045;-61
2023/01/20 01:51:22;;;;;;;126.35;39.13;;;;;;;;;;6266397;28;20053;-55
2023/01/20 01:54:27;;;;;;;142.73;43.05;;;;;;;;;;6265008;28;20058;-54
2023/01/20 01:57:30;;;;;;;124.65;40.88;;;;;;;;;;6261756;28;20799;-63
2023/01/20 02:00:31;;;;;;;119.90;39.53;;;;;;;;;;6266291;28;20055;-54
2023/01/20 02:03:40;;;;;;;119.38;41.88;;;;;;;;;;6288670;28;20052;-54
2023/01/20 02:06:45;;;;;;;114.15;38.63;;;;;;;;;;6275700;28;20040;-56
2023/01/20 02:09:45;;;;;;;114.38;39.22;;;;;;;;;;6270120;28;20049;-56
2023/01/20 02:12:50;;;;;;;109.32;36.00;;;;;;;;;;6266244;28;20491;-56
2023/01/20 02:16:04;;;;;;;104.00;35.40;;;;;;;;;;6269665;28;20052;-61
2023/01/20 02:19:24;;;;;;;105.72;34.80;;;;;;;;;;6266586;28;20475;-60
2023/01/20 02:22:38;;;;;;;108.20;36.38;;;;;;;;;;6269917;28;20114;-56
2023/01/20 02:26:00;;;;;;;165.82;47.45;;;;;;;;;;6295539;28;20126;-56
2023/01/20 02:29:16;;;;;;;94.33;34.97;;;;;;;;;;6275023;28;20059;-56
2023/01/20 02:32:32;;;;;;;115.57;36.85;;;;;;;;;;6270075;28;20135;-62
2023/01/20 02:35:40;;;;;;;116.25;39.13;;;;;;;;;;6266582;28;20441;-56
2023/01/20 02:39:04;;;;;;;120.20;44.75;;;;;;;;;;6278939;28;20124;-55
2023/01/20 02:42:11;;;;;;;98.45;34.47;;;;;;;;;;6270515;28;20076;-60
2023/01/20 02:45:20;;;;;;;102.32;34.15;;;;;;;;;;6265977;28;20047;-54
2023/01/20 02:48:27;;;;;;;114.22;41.45;;;;;;;;;;6264238;28;20786;-56
2023/01/20 02:51:34;;;;;;;92.70;34.63;;;;;;;;;;6267593;28;20059;-55
2023/01/20 02:54:38;;;;;;;98.65;34.60;;;;;;;;;;6269073;28;20498;-61
2023/01/20 02:57:53;;;;;;;108.15;36.03;;;;;;;;;;6265095;28;20055;-57
2023/01/20 03:01:11;;;;;;;126.50;42.75;;;;;;;;;;6265120;28;20154;-55
2023/01/20 03:04:16;;;;;;;106.35;37.25;;;;;;;;;;6267150;28;20049;-55
2023/01/20 03:07:22;;;;;;;106.95;38.50;;;;;;;;;;6266662;28;20041;-57
2023/01/20 03:10:24;;;;;;;113.32;40.30;;;;;;;;;;6264627;28;20060;-60
2023/01/20 03:13:33;;;;;;;116.25;40.60;;;;;;;;;;6266998;28;20052;-57
2023/01/20 03:16:34;;;;;;;118.07;43.28;;;;;;;;;;6285275;28;20048;-57
2023/01/20 03:19:34;;;;;;;118.15;43.03;;;;;;;;;;6271238;28;20057;-61
2023/01/20 03:22:35;;;;;;;115.68;42.80;;;;;;;;;;6270027;28;20155;-56
2023/01/20 03:25:37;;;;;;;107.15;42.15;;;;;;;;;;6291733;28;20067;-57
2023/01/20 03:28:39;;;;;;;;;;;;;;;;;;6269293;28;20428;-59
2023/01/20 03:31:47;;;;;;;113.20;42.20;;;;;;;;;;6265010;28;20271;-56
2023/01/20 03:34:48;;;;;;;105.20;38.80;;;;;;;;;;6264628;28;20059;-55
2023/01/20 03:37:49;;;;;;;97.22;37.47;;;;;;;;;;6264411;28;20384;-54
2023/01/20 03:41:00;;;;;;;103.70;36.15;;;;;;;;;;6263797;28;20264;-61
2023/01/20 03:44:12;;;;;;;101.93;35.25;;;;;;;;;;6278449;28;20045;-55
2023/01/20 03:47:26;;;;;;;91.00;34.47;;;;;;;;;;6265942;28;20052;-56
2023/01/20 03:50:39;;;;;;;100.28;35.22;;;;;;;;;;6265917;28;21115;-57
2023/01/20 03:53:51;;;;;;;101.32;36.58;;;;;;;;;;6264598;28;20052;-62
2023/01/20 03:57:03;;;;;;;100.10;36.88;;;;;;;;;;6285815;28;20082;-55
2023/01/20 04:00:07;;;;;;;91.43;34.60;;;;;;;;;;6271920;28;20041;-54
2023/01/20 04:03:14;;;;;;;100.13;37.65;;;;;;;;;;6263994;28;20114;-56
2023/01/20 04:06:17;;;;;;;103.28;40.25;;;;;;;;;;6262910;28;20049;-53
2023/01/20 04:09:25;;;;;;;102.85;38.10;;;;;;;;;;6265103;28;20048;-63
2023/01/20 04:12:25;;;;;;;97.68;36.53;;;;;;;;;;6264070;28;20064;-63
2023/01/20 04:15:31;;;;;;;101.70;37.35;;;;;;;;;;6267058;28;20454;-54
2023/01/20 04:18:31;;;;;;;101.25;37.00;;;;;;;;;;6263587;28;20040;-55
2023/01/20 04:21:48;;;;;;;108.88;38.97;;;;;;;;;;6264667;28;20446;-54
2023/01/20 04:25:00;;;;;;;97.70;37.85;;;;;;;;;;6259667;28;20060;-56
2023/01/20 04:28:00;;;;;;;89.95;35.88;;;;;;;;;;6259410;28;20139;-56
2023/01/20 04:31:01;;;;;;;92.32;33.90;;;;;;;;;;6265695;28;20074;-60
2023/01/20 04:34:03;;;;;;;91.65;32.90;;;;;;;;;;6263041;28;20045;-54
2023/01/20 04:37:04;;;;;;;90.93;32.05;;;;;;;;;;6270396;28;20053;-56
2023/01/20 04:40:05;;;;;;;91.85;32.17;;;;;;;;;;6263854;28;20514;-56
2023/01/20 04:43:06;;;;;;;79.38;29.98;;;;;;;;;;6267379;28;20059;-63
2023/01/20 04:46:06;;;;;;;94.65;33.30;;;;;;;;;;6265252;28;20049;-56
2023/01/20 04:49:09;;;;;;;79.75;30.58;;;;;;;;;;6264391;28;20041;-56
2023/01/20 04:52:09;;;;;;;90.10;30.02;;;;;;;;;;6290756;28;20097;-54
2023/01/20 04:55:10;;;;;;;83.28;28.73;;;;;;;;;;6268486;28;20049;-55
2023/01/20 04:58:11;;;;;;;75.47;27.42;;;;;;;;;;6264622;28;20045;-56
2023/01/20 05:01:11;;;;;;;78.70;25.88;;;;;;;;;;6266960;28;20045;-54
2023/01/20 05:04:12;;;;;;;69.68;23.15;;;;;;;;;;6262383;28;20044;-54
2023/01/20 05:07:13;;;;;;;83.53;22.73;;;;;;;;;;6262896;28;20094;-57
2023/01/20 05:10:13;;;;;;;80.57;22.60;;;;;;;;;;6269485;28;20404;-56
2023/01/20 05:13:14;;;;;;;120.60;26.45;;;;;;;;;;6275960;28;20047;-56
2023/01/20 05:16:22;;;;;;;92.32;26.65;;;;;;;;;;6268294;28;20068;-56
2023/01/20 05:19:22;;;;;;;89.38;25.42;;;;;;;;;;6275704;28;20131;-57
2023/01/20 05:22:23;;;;;;;75.25;23.83;;;;;;;;;;6276924;28;21229;-59
2023/01/20 05:25:23;;;;;;;83.93;23.98;;;;;;;;;;6263536;28;20185;-56
2023/01/20 05:28:24;;;;;;;88.32;22.10;;;;;;;;;;6265357;28;20443;-55
2023/01/20 05:31:25;;;;;;;73.85;19.48;;;;;;;;;;6271972;28;20083;-56
2023/01/20 05:34:25;;;;;;;65.90;21.08;;;;;;;;;;6279691;28;20053;-55
2023/01/20 05:37:26;;;;;;;78.88;21.90;;;;;;;;;;6291749;28;20452;-57
2023/01/20 05:40:26;;;;;;;86.00;22.38;;;;;;;;;;6291767;28;20044;-55
2023/01/20 05:43:27;;;;;;;72.25;21.27;;;;;;;;;;6269208;28;20430;-56
2023/01/20 05:46:28;;;;;;;79.07;20.88;;;;;;;;;;6267954;28;20056;-55
2023/01/20 05:49:29;;;;;;;80.55;21.75;;;;;;;;;;6270388;28;20044;-56
2023/01/20 05:52:29;;;;;;;70.13;21.30;;;;;;;;;;6270034;28;20045;-57
2023/01/20 05:55:30;;;;;;;65.53;21.63;;;;;;;;;;6269223;28;20499;-54
2023/01/20 05:58:31;;;;;;;72.40;21.25;;;;;;;;;;6264070;28;20044;-59
2023/01/20 06:01:32;;;;;;;63.15;19.52;;;;;;;;;;6267869;28;20083;-56
2023/01/20 06:04:32;;;;;;;69.63;22.23;;;;;;;;;;6269961;28;20176;-58
2023/01/20 06:07:33;;;;;;;69.78;21.75;;;;;;;;;;6268274;28;20083;-56
2023/01/20 06:10:33;;;;;;;73.20;21.05;;;;;;;;;;6264695;28;20072;-56
2023/01/20 06:13:34;;;;;;;69.22;21.67;;;;;;;;;;6258172;28;20044;-55
2023/01/20 06:16:35;;;;;;;80.68;22.02;;;;;;;;;;6259103;28;20052;-54
2023/01/20 06:19:35;;;;;;;76.28;23.40;;;;;;;;;;6254429;28;20098;-54
2023/01/20 06:22:36;;;;;;;97.07;23.55;;;;;;;;;;6251404;28;20041;-52
2023/01/20 06:25:37;;;;;;;92.38;23.40;;;;;;;;;;6250845;28;20055;-60
2023/01/20 06:28:37;;;;;;;87.53;25.40;;;;;;;;;;6247741;28;20079;-56
2023/01/20 06:31:38;;;;;;;85.72;25.98;;;;;;;;;;6253600;28;20071;-55
2023/01/20 06:34:39;;;;;;;88.15;24.50;;;;;;;;;;6252670;28;20049;-54
2023/01/20 06:37:39;;;;;;;80.85;23.02;;;;;;;;;;6251588;28;20049;-56
2023/01/20 06:40:40;;;;;;;106.28;25.92;;;;;;;;;;6255250;28;20482;-55
2023/01/20 06:43:41;;;;;;;92.88;26.27;;;;;;;;;;6249732;28;20045;-54
2023/01/20 06:46:41;;;;;;;122.10;29.13;;;;;;;;;;6253333;28;20044;-55
2023/01/20 06:49:42;;;;;;;91.88;25.02;;;;;;;;;;6251189;28;20124;-55
2023/01/20 06:52:42;;;;;;;112.20;27.90;;;;;;;;;;6253333;28;20405;-55
2023/01/20 06:55:43;;;;;;;102.75;26.00;;;;;;;;;;6250024;28;20047;-54
2023/01/20 06:58:44;;;;;;;73.60;21.00;;;;;;;;;;6250425;28;20096;-55
2023/01/20 07:01:44;;;;;;;79.78;22.88;;;;;;;;;;6265977;28;20044;-61
2023/01/20 07:04:45;;;;;;;80.03;20.42;;;;;;;;;;6260438;28;20060;-53
2023/01/20 07:07:45;;;;;;;88.32;24.42;;;;;;;;;;6249163;28;20047;-53
2023/01/20 07:10:46;;;;;;;83.05;23.63;;;;;;;;;;6252270;28;20045;-56
2023/01/20 07:13:47;;;;;;;83.90;22.42;;;;;;;;;;6250626;28;20048;-58
2023/01/20 07:16:47;;;;;;;109.25;27.17;;;;;;;;;;6248051;28;20049;-56
2023/01/20 07:19:48;;;;;;;116.10;29.75;;;;;;;;;;6250055;28;20046;-56
2023/01/20 07:22:48;;;;;;;123.00;29.00;;;;;;;;;;6249975;28;20511;-50
2023/01/20 07:26:01;;;;;;;97.93;26.00;;;;;;;;;;6257715;28;20053;-54
2023/01/20 07:29:01;;;;;;;130.43;34.17;;;;;;;;;;6263695;28;20049;-53
2023/01/20 07:32:02;;;;;;;135.48;34.38;;;;;;;;;;6259632;28;20098;-56
2023/01/20 07:35:03;;;;;;;111.57;32.28;;;;;;;;;;6261948;28;20128;-62
2023/01/20 07:38:04;;;;;;;91.22;29.15;;;;;;;;;;6263484;28;20131;-55
2023/01/20 07:41:09;;;;;;;103.03;29.17;;;;;;;;;;6268048;28;20036;-53
2023/01/20 07:44:10;;;;;;;98.88;29.52;;;;;;;;;;6259529;28;20173;-56
2023/01/20 07:47:10;;;;;;;105.07;31.40;;;;;;;;;;6247632;28;20045;-54
2023/01/20 07:50:11;;;;;;;104.30;29.77;;;;;;;;;;6249371;28;20049;-55
2023/01/20 07:53:12;;;;;;;86.50;24.38;;;;;;;;;;6255572;28;20099;-57
2023/01/20 07:56:20;;;;;;;102.60;28.67;;;;;;;;;;6250081;28;20174;-61
2023/01/20 07:59:20;;;;;;;101.03;28.90;;;;;;;;;;6250575;28;20136;-54
2023/01/20 08:02:21;;;;;;;97.35;28.83;;;;;;;;;;6250312;28;20049;-59
2023/01/20 08:05:21;;;;;;;98.53;27.25;;;;;;;;;;6249877;28;20045;-54
2023/01/20 08:08:22;;;;;;;95.93;28.38;;;;;;;;;;6249167;28;20040;-55
2023/01/20 08:11:22;;;;;;;90.88;26.45;;;;;;;;;;6245830;28;20044;-55
2023/01/20 08:14:23;;;;;;;94.25;26.75;;;;;;;;;;6252443;28;20069;-53
2023/01/20 08:17:24;;;;;;;94.90;29.02;;;;;;;;;;6249722;28;20045;-62
2023/01/20 08:20:24;;;;;;;95.00;27.30;;;;;;;;;;6246684;28;20056;-54
2023/01/20 08:23:25;;;;;;;93.97;27.58;;;;;;;;;;6251108;28;20056;-57
2023/01/20 08:26:28;;;;;;;95.80;32.33;;;;;;;;;;6249186;28;20048;-54
2023/01/20 08:29:30;;;;;;;89.68;26.85;;;;;;;;;;6247726;28;20867;-55
2023/01/20 08:32:30;;;;;;;88.50;27.83;;;;;;;;;;6245676;28;20172;-54
2023/01/20 08:35:34;;;;;;;69.18;22.02;;;;;;;;;;6248807;28;20049;-56
2023/01/20 08:38:35;;;;;;;89.20;25.23;;;;;;;;;;6248235;28;20792;-54
2023/01/20 08:41:38;;;;;;;79.85;22.35;;;;;;;;;;6247334;28;20055;-56
2023/01/20 08:44:39;;;;;;;79.10;23.80;;;;;;;;;;6246684;28;20052;-55
2023/01/20 08:47:44;;;;;;;80.57;24.67;;;;;;;;;;6242331;28;20439;-58
2023/01/20 08:50:45;;;;;;;88.63;27.17;;;;;;;;;;6248780;28;20049;-54
2023/01/20 08:53:46;;;;;;;92.82;25.73;;;;;;;;;;6249076;28;20052;-55
2023/01/20 08:56:53;;;;;;;89.00;26.88;;;;;;;;;;6257769;28;20049;-54
2023/01/20 08:59:54;;;;;;;94.05;29.48;;;;;;;;;;6247348;28;20098;-54
2023/01/20 09:02:55;;;;;;;100.18;31.33;;;;;;;;;;6250502;28;20056;-54
2023/01/20 09:05:58;;;;;;;101.72;32.10;;;;;;;;;;6247556;28;20041;-61
2023/01/20 09:08:58;;;;;;;119.35;36.50;;;;;;;;;;6247217;28;20782;-54
2023/01/20 09:11:59;;;;;;;107.93;34.13;;;;;;;;;;6253066;28;20053;-57
2023/01/20 09:15:00;;;;;;;104.72;33.60;;;;;;;;;;6256475;28;20060;-54
2023/01/20 09:18:01;;;;;;;102.32;30.98;;;;;;;;;;6254132;28;20049;-60
2023/01/20 09:21:05;;;;;;;115.07;33.03;;;;;;;;;;6250489;28;20067;-54
2023/01/20 09:24:06;;;;;;;119.03;34.00;;;;;;;;;;6253120;28;20068;-55
2023/01/20 09:27:07;;;;;;;119.65;34.38;;;;;;;;;;6248247;28;20045;-55
2023/01/20 09:30:07;;;;;;;108.70;35.75;;;;;;;;;;6253505;28;20473;-57
2023/01/20 09:33:10;;;;;;;101.57;32.73;;;;;;;;;;6249766;28;20516;-54
2023/01/20 09:36:10;;;;;;;100.88;34.97;;;;;;;;;;6253162;28;20044;-54
2023/01/20 09:46:41;;;;;;;93.20;27.17;;;;;;;;;;6251217;28;20040;-55
2023/01/20 09:53:29;;;;;;;95.07;28.05;;;;;;;;;;6252085;28;20049;-56
2023/01/20 09:56:38;;;;;;;85.57;26.38;;;;;;;;;;6247863;28;20037;-51
2023/01/20 09:59:53;;;;;;;83.80;26.92;;;;;;;;;;6248795;28;20049;-55
2023/01/20 10:03:02;;;;;;;81.75;28.42;;;;;;;;;;6257952;28;20206;-54
2023/01/20 10:06:09;;;;;;;97.88;29.83;;;;;;;;;;6254132;28;20124;-57
2023/01/20 10:09:20;;;;;;;84.18;28.23;;;;;;;;;;6265866;28;20459;-54
2023/01/20 10:12:35;;;;;;;94.18;29.65;;;;;;;;;;6263596;28;20056;-53
2023/01/20 10:15:39;;;;;;;91.13;30.50;;;;;;;;;;6264937;28;20045;-55
2023/01/20 10:18:50;;;;;;;97.15;31.05;;;;;;;;;;6262433;28;20426;-52
2023/01/20 10:21:57;;;;;;;103.18;34.08;;;;;;;;;;6264709;28;20037;-57
2023/01/20 10:25:13;;;;;;;105.25;32.88;;;;;;;;;;6266447;28;20563;-58
2023/01/20 10:28:17;;;;;;;109.90;33.50;;;;;;;;;;6262236;28;20652;-54
2023/01/20 10:31:24;;;;;;;106.50;36.63;;;;;;;;;;6261403;28;20060;-55
2023/01/20 10:34:30;;;;;;;109.70;36.72;;;;;;;;;;6264436;28;20049;-54
2023/01/20 10:37:31;;;;;;;108.13;36.78;;;;;;;;;;6264485;28;20112;-56
2023/01/20 10:40:40;;;;;;;118.38;39.88;;;;;;;;;;6261340;28;20045;-59
2023/01/20 10:43:41;;;;;;;148.27;43.63;;;;;;;;;;6261250;28;20051;-55
2023/01/20 10:47:17;;;;;;;126.47;41.80;;;;;;;;;;6262708;28;20049;-53
2023/01/20 10:50:31;;;;;;;128.18;42.03;;;;;;;;;;6209861;28;20054;-56
2023/01/20 10:54:05;;;;;;;106.93;37.20;;;;;;;;;;6267036;28;20049;-52
2023/01/20 10:57:11;;;;;;;116.43;38.75;;;;;;;;;;6264149;28;20068;-55
2023/01/20 11:00:25;;;;;;;118.90;41.10;;;;;;;;;;6264860;28;20056;-62
2023/01/20 11:03:36;;;;;;;116.75;39.92;;;;;;;;;;6255142;28;20045;-61
2023/01/20 11:06:37;;;;;;;119.32;40.53;;;;;;;;;;6258030;28;20052;-56
2023/01/20 11:09:38;;;;;;;116.20;40.33;;;;;;;;;;6264861;28;20102;-55
2023/01/20 11:12:41;;;;;;;108.82;40.15;;;;;;;;;;6252379;28;21107;-55
2023/01/20 11:15:45;;;;;;;125.13;40.50;;;;;;;;;;6252234;28;20128;-55
2023/01/20 11:18:58;;;;;;;112.32;38.80;;;;;;;;;;6250040;28;20048;-54
2023/01/20 11:22:10;;;;;;;108.55;36.83;;;;;;;;;;6256149;28;20102;-55
2023/01/20 11:25:23;;;;;;;102.72;34.90;;;;;;;;;;6247784;28;20076;-54
2023/01/20 11:28:25;;;;;;;120.32;39.42;;;;;;;;;;6250014;28;20110;-54
2023/01/20 11:31:54;;;;;;;114.50;38.15;;;;;;;;;;6253716;28;21002;-54
2023/01/20 11:34:56;;;;;;;107.50;37.85;;;;;;;;;;6262881;28;20057;-55
2023/01/20 11:37:56;;;;;;;100.90;34.40;;;;;;;;;;6250439;28;20057;-54
2023/01/20 11:40:58;;;;;;;97.75;32.33;;;;;;;;;;6260533;28;20060;-54
2023/01/20 11:43:59;;;;;;;84.45;31.48;;;;;;;;;;6260157;28;20543;-54
2023/01/20 11:47:19;;;;;;;94.80;31.50;;;;;;;;;;6253694;28;20144;-54
2023/01/20 11:50:34;;;;;;;86.50;27.70;;;;;;;;;;6263011;28;20606;-54
2023/01/20 11:53:35;;;;;;;79.07;26.90;;;;;;;;;;6262954;28;20110;-54
2023/01/20 11:56:40;;;;;;;87.40;29.92;;;;;;;;;;6260956;28;20381;-54
2023/01/20 11:59:48;;;;;;;75.60;26.55;;;;;;;;;;6264127;28;20041;-53
2023/01/20 12:03:26;;;;;;;85.22;29.08;;;;;;;;;;6260050;28;20040;-53
2023/01/20 12:06:32;;;;;;;88.82;28.65;;;;;;;;;;6256778;28;20094;-51
2023/01/20 12:09:37;;;;;;;84.68;28.10;;;;;;;;;;6256449;28;20095;-54
2023/01/20 12:12:49;;;;;;;82.25;30.13;;;;;;;;;;6245052;28;20053;-57
2023/01/20 12:15:55;;;;;;;88.03;30.03;;;;;;;;;;6241332;28;20135;-60
2023/01/20 12:19:00;;;;;;;81.25;27.83;;;;;;;;;;6243971;28;20056;-54
2023/01/20 12:22:11;;;;;;;82.13;28.77;;;;;;;;;;6248083;28;20137;-54
2023/01/20 12:25:25;;;;;;;89.63;29.85;;;;;;;;;;6255109;28;20063;-55
2023/01/20 12:28:39;;;;;;;82.78;27.60;;;;;;;;;;6257710;28;20053;-54
2023/01/20 12:31:40;;;;;;;77.68;26.48;;;;;;;;;;6259054;28;20181;-54
2023/01/20 12:34:40;;;;;;;80.28;27.15;;;;;;;;;;6258813;28;20535;-54
2023/01/20 12:37:56;;;;;;;76.53;26.85;;;;;;;;;;6252472;28;20047;-58
2023/01/20 12:41:04;;;;;;;79.55;27.20;;;;;;;;;;6255689;28;20053;-52
2023/01/20 12:44:43;;;;;;;80.95;27.45;;;;;;;;;;6259703;28;20090;-57
2023/01/20 12:47:46;;;;;;;80.35;27.10;;;;;;;;;;6264292;28;20048;-58
2023/01/20 12:51:14;;;;;;;84.25;28.42;;;;;;;;;;6261008;28;20044;-54
2023/01/20 12:54:36;;;;;;;86.13;28.42;;;;;;;;;;6258747;28;20424;-53
2023/01/20 12:57:48;;;;;;;84.97;32.45;;;;;;;;;;6261803;28;20399;-52
2023/01/20 13:01:01;;;;;;;91.03;32.67;;;;;;;;;;6260218;28;20581;-54
2023/01/20 13:04:14;;;;;;;80.07;28.75;;;;;;;;;;6251940;28;20107;-55
2023/01/20 13:07:39;;;;;;;79.95;28.38;;;;;;;;;;6256735;28;20041;-53
2023/01/20 13:11:07;;;;;;;79.28;27.13;;;;;;;;;;6261976;28;20069;-54
2023/01/20 13:14:16;;;;;;;80.90;27.70;;;;;;;;;;6260314;28;20048;-55
2023/01/20 13:17:42;;;;;;;88.57;27.48;;;;;;;;;;6262343;28;20047;-55
2023/01/20 13:20:44;;;;;;;89.53;28.83;;;;;;;;;;6259843;28;20079;-55
2023/01/20 13:23:47;;;;;;;84.35;30.15;;;;;;;;;;6257634;28;20199;-55
2023/01/20 13:26:48;;;;;;;74.90;26.75;;;;;;;;;;6246664;28;20472;-55
2023/01/20 13:29:49;;;;;;;95.03;30.67;;;;;;;;;;6257408;28;20476;-54
2023/01/20 13:33:01;;;;;;;90.47;30.80;;;;;;;;;;6256319;28;20041;-55
2023/01/20 13:36:23;;;;;;;87.68;28.13;;;;;;;;;;6260781;28;20557;-55
2023/01/20 13:39:45;;;;;;;81.70;27.95;;;;;;;;;;6264302;28;20128;-55
2023/01/20 13:42:47;;;;;;;99.32;29.48;;;;;;;;;;6248036;28;20114;-57
2023/01/20 13:46:08;;;;;;;88.95;28.58;;;;;;;;;;6255735;28;20492;-55
2023/01/20 13:49:24;;;;;;;92.15;27.90;;;;;;;;;;6256583;28;20043;-58
2023/01/20 13:52:49;;;;;;;96.13;29.08;;;;;;;;;;6261442;28;20055;-54
2023/01/20 13:55:55;;;;;;;91.95;31.08;;;;;;;;;;6262501;28;20045;-56
2023/01/20 13:58:59;;;;;;;93.05;28.63;;;;;;;;;;6265201;28;20044;-54
2023/01/20 14:02:17;;;;;;;94.88;30.80;;;;;;;;;;6250444;28;20049;-51
2023/01/20 14:05:24;;;;;;;100.70;31.80;;;;;;;;;;6254866;28;20053;-55
2023/01/20 14:08:27;;;;;;;91.10;30.00;;;;;;;;;;6246023;28;20056;-54
2023/01/20 14:11:30;;;;;;;97.70;29.27;;;;;;;;;;6247271;28;20049;-55
2023/01/20 14:14:30;;;;;;;94.03;31.55;;;;;;;;;;6256785;28;20139;-57
2023/01/20 14:17:31;;;;;;;89.93;30.30;;;;;;;;;;6264544;28;20416;-55
2023/01/20 14:20:32;;;;;;;90.43;29.98;;;;;;;;;;6250243;28;20052;-54
2023/01/20 14:23:35;;;;;;;93.57;29.20;;;;;;;;;;6249788;28;20096;-56
2023/01/20 14:26:36;;;;;;;94.78;29.70;;;;;;;;;;6254361;28;20133;-55
2023/01/20 14:29:36;;;;;;;95.22;30.70;;;;;;;;;;6249019;28;20053;-55
2023/01/20 14:32:37;;;;;;;96.85;31.60;;;;;;;;;;6247904;28;20487;-57
2023/01/20 14:35:40;;;;;;;99.30;33.05;;;;;;;;;;6250104;28;20080;-54
2023/01/20 14:38:41;;;;;;;;;;;;;;;;;;6246951;28;20057;-55
2023/01/20 14:41:50;;;;;;;94.20;31.27;;;;;;;;;;6255120;28;19921;-63
2023/01/20 14:44:52;;;;;;;93.07;32.08;;;;;;;;;;6263245;28;20037;-55
2023/01/20 14:47:54;;;;;;;96.03;33.45;;;;;;;;;;6264724;28;20079;-58
2023/01/20 14:50:56;;;;;;;90.32;31.35;;;;;;;;;;6264249;28;20055;-60
2023/01/20 14:54:34;;;;;;;96.10;31.77;;;;;;;;;;6249144;28;20506;-61
2023/01/20 14:57:43;;;;;;;98.13;32.53;;;;;;;;;;6248922;28;20631;-54
2023/01/20 15:00:45;;;;;;;109.82;37.35;;;;;;;;;;6252955;28;20056;-56
2023/01/20 15:03:54;;;;;;;101.55;33.42;;;;;;;;;;6247652;28;21493;-55
2023/01/20 15:06:56;;;;;;;89.95;30.98;;;;;;;;;;6250193;28;20819;-55
2023/01/20 15:10:06;;;;;;;79.82;27.60;;;;;;;;;;6249010;28;20443;-54
2023/01/20 15:13:26;;;;;;;80.07;27.52;;;;;;;;;;6243316;28;20486;-55
2023/01/20 15:16:43;;;;;;;83.38;28.30;;;;;;;;;;6249553;28;20056;-54
2023/01/20 15:19:45;;;;;;;89.90;29.95;;;;;;;;;;6252302;28;20056;-56
2023/01/20 15:22:46;;;;;;;79.85;29.63;;;;;;;;;;6264354;28;20049;-56
2023/01/20 15:25:51;;;;;;;68.35;23.65;;;;;;;;;;6262150;28;20053;-55
2023/01/20 15:28:53;;;;;;;79.60;29.23;;;;;;;;;;6265324;28;20114;-54
2023/01/20 15:31:55;;;;;;;70.40;24.15;;;;;;;;;;6265821;28;20518;-56
2023/01/20 15:34:56;;;;;;;72.57;26.40;;;;;;;;;;6262629;28;20033;-58
2023/01/20 15:37:57;;;;;;;74.18;26.05;;;;;;;;;;6249565;28;20198;-55
2023/01/20 15:40:58;;;;;;;73.28;25.20;;;;;;;;;;6249499;28;20080;-55
2023/01/20 15:43:58;;;;;;;75.53;27.25;;;;;;;;;;6247398;28;20045;-55
2023/01/20 15:46:59;;;;;;;85.28;27.70;;;;;;;;;;6252595;28;20085;-54
2023/01/20 15:50:00;;;;;;;79.82;28.45;;;;;;;;;;6258259;28;20214;-66
2023/01/20 15:53:02;;;;;;;87.88;29.92;;;;;;;;;;6265887;28;20511;-61
2023/01/20 15:56:02;;;;;;;83.03;27.80;;;;;;;;;;6260177;28;20067;-56
2023/01/20 15:59:15;;;;;;;73.32;25.95;;;;;;;;;;6262396;28;20053;-53
2023/01/20 16:02:17;;;;;;;89.82;27.10;;;;;;;;;;6259912;28;20048;-56
2023/01/20 16:05:18;;;;;;;76.40;26.67;;;;;;;;;;6262448;28;20038;-59
2023/01/20 16:08:28;;;;;;;84.05;30.50;;;;;;;;;;6254810;28;20084;-51
2023/01/20 16:11:29;;;;;;;80.65;28.98;;;;;;;;;;6283492;28;20054;-55
2023/01/20 16:14:29;;;;;;;93.10;32.15;;;;;;;;;;6280001;28;20045;-53
2023/01/20 16:17:33;;;;;;;86.97;29.98;;;;;;;;;;6272866;28;20045;-53
2023/01/20 16:20:34;;;;;;;89.68;28.70;;;;;;;;;;6249459;28;20080;-49
2023/01/20 16:23:35;;;;;;;86.32;30.60;;;;;;;;;;6258677;28;20071;-55
2023/01/20 16:26:35;;;;;;;94.63;30.27;;;;;;;;;;6256102;28;20532;-53
2023/01/20 16:29:36;;;;;;;92.43;30.80;;;;;;;;;;6258896;28;20494;-53
2023/01/20 16:32:36;;;;;;;89.25;29.40;;;;;;;;;;6258109;28;20617;-51
2023/01/20 16:35:37;;;;;;;89.20;28.75;;;;;;;;;;6256724;28;20048;-62
2023/01/20 16:38:39;;;;;;;86.60;29.02;;;;;;;;;;6266848;28;20273;-53
2023/01/20 16:41:46;;;;;;;97.18;30.40;;;;;;;;;;6261986;28;20255;-53
2023/01/20 16:44:46;;;;;;;92.65;30.23;;;;;;;;;;6261661;28;20135;-52
2023/01/20 16:47:47;;;;;;;86.68;27.73;;;;;;;;;;6263459;28;20049;-53
2023/01/20 16:50:48;;;;;;;94.97;32.40;;;;;;;;;;6263517;28;20045;-54
2023/01/20 16:53:49;;;;;;;84.43;29.27;;;;;;;;;;6263168;28;20414;-54
2023/01/20 16:56:49;;;;;;;86.10;28.55;;;;;;;;;;6262591;28;20352;-55
2023/01/20 16:59:50;;;;;;;95.40;31.65;;;;;;;;;;6264570;28;20455;-57
2023/01/20 17:02:52;;;;;;;87.68;29.02;;;;;;;;;;6260705;28;20502;-55
2023/01/20 17:05:56;;;;;;;88.38;27.80;;;;;;;;;;6260632;28;20495;-58
2023/01/20 17:08:58;;;;;;;98.78;30.23;;;;;;;;;;6257843;28;20072;-54
2023/01/20 17:11:59;;;;;;;89.97;28.67;;;;;;;;;;6261895;28;20041;-56
2023/01/20 17:14:59;;;;;;;93.45;31.27;;;;;;;;;;6251365;28;20064;-57
2023/01/20 17:18:00;;;;;;;103.30;30.92;;;;;;;;;;6250465;28;20190;-56
2023/01/20 17:21:06;;;;;;;90.90;28.17;;;;;;;;;;6250903;28;20797;-54
2023/01/20 17:24:09;;;;;;;96.47;29.42;;;;;;;;;;6250300;28;20067;-52
2023/01/20 17:27:10;;;;;;;91.20;27.63;;;;;;;;;;6248976;28;20049;-53
2023/01/20 17:30:11;;;;;;;108.20;29.98;;;;;;;;;;6252045;28;20511;-55
2023/01/20 17:33:11;;;;;;;86.13;25.02;;;;;;;;;;6258336;28;20430;-51
2023/01/20 17:36:15;;;;;;;98.07;29.30;;;;;;;;;;6255324;28;20045;-51
2023/01/20 17:39:15;;;;;;;93.47;27.27;;;;;;;;;;6253076;28;20170;-55
2023/01/20 17:42:16;;;;;;;95.60;30.02;;;;;;;;;;6256626;28;20492;-51
2023/01/20 17:45:17;;;;;;;106.57;31.60;;;;;;;;;;6254364;28;20087;-51
2023/01/20 17:48:17;;;;;;;99.97;30.58;;;;;;;;;;6257122;28;20179;-54
2023/01/20 17:51:20;;;;;;;99.95;31.33;;;;;;;;;;6258072;28;20041;-55
2023/01/20 17:54:21;;;;;;;99.75;31.98;;;;;;;;;;6255784;28;20059;-53
2023/01/20 17:57:22;;;;;;;106.13;31.60;;;;;;;;;;6255127;28;20565;-51
2023/01/20 18:00:23;;;;;;;92.25;27.20;;;;;;;;;;6257203;28;20068;-51
2023/01/20 18:03:23;;;;;;;105.78;31.23;;;;;;;;;;6256626;28;20122;-53